Weather at Cattaraugus County-Olean Airport

Public forecast

Using degrees Fahrenheit for public forecast. Weather courtesy of forecast.io.

Current aviation weather report (METAR) for Cattaraugus County-Olean Airport

Retrieved 2020/10/25 06:35 UTC (10 minutes ago):

KOLE 250635Z AUTO 00000KT 10SM CLR 00/M03 A3018 RMK AO2

Closest aviation forecast (TAF) to Cattaraugus County-Olean Airport

Closest forecast is Bradford Regional Airport, 28.9 nm (53.5 km) SSW. Retrieved 2020/10/25 06:36 UTC (9 minutes ago):

TAF KBFD 250535Z 2506/2606 04004KT P6SM BKN020 FM250630 02004KT P6SM SCT020 FM251100 09009KT P6SM BKN015 FM251400 09009KT P6SM SCT025 BKN080 FM260000 12007KT P6SM BKN050 FM260300 13006KT P6SM OVC015